sensor_id;sensor_type;location;lat;lon;timestamp;P1;durP1;ratioP1;P2;durP2;ratioP2
46014;SDS011;36844;51.898;-0.874;2023-07-16T02:29:33;3.97;;;1.50;;
46014;SDS011;36844;51.898;-0.874;2023-07-16T02:31:59;3.25;;;1.40;;
46014;SDS011;36844;51.898;-0.874;2023-07-16T02:34:24;4.20;;;1.00;;
46014;SDS011;36844;51.898;-0.874;2023-07-16T02:36:49;3.60;;;1.52;;
46014;SDS011;36844;51.898;-0.874;2023-07-16T02:39:15;3.65;;;0.95;;
46014;SDS011;36844;51.898;-0.874;2023-07-16T02:41:40;2.35;;;1.17;;
46014;SDS011;36844;51.898;-0.874;2023-07-16T02:44:05;3.65;;;1.40;;
46014;SDS011;36844;51.898;-0.874;2023-07-16T02:46:31;4.65;;;1.17;;
46014;SDS011;36844;51.898;-0.874;2023-07-16T02:48:57;8.60;;;1.27;;
46014;SDS011;36844;51.898;-0.874;2023-07-16T02:51:22;4.90;;;1.08;;
46014;SDS011;36844;51.898;-0.874;2023-07-16T02:53:48;6.43;;;1.38;;
46014;SDS011;36844;51.898;-0.874;2023-07-16T02:56:13;3.55;;;1.27;;
46014;SDS011;36844;51.898;-0.874;2023-07-16T02:58:38;2.47;;;1.40;;
46014;SDS011;36844;51.898;-0.874;2023-07-16T03:01:04;5.80;;;1.60;;
46014;SDS011;36844;51.898;-0.874;2023-07-16T03:03:29;6.50;;;1.67;;
46014;SDS011;36844;51.898;-0.874;2023-07-16T03:05:54;4.18;;;1.20;;
46014;SDS011;36844;51.898;-0.874;2023-07-16T03:08:20;2.58;;;1.40;;
46014;SDS011;36844;51.898;-0.874;2023-07-16T03:10:45;3.65;;;1.67;;
46014;SDS011;36844;51.898;-0.874;2023-07-16T03:13:11;2.13;;;1.45;;
46014;SDS011;36844;51.898;-0.874;2023-07-16T03:15:36;4.72;;;1.70;;
46014;SDS011;36844;51.898;-0.874;2023-07-16T03:18:01;4.40;;;1.35;;
46014;SDS011;36844;51.898;-0.874;2023-07-16T03:20:27;4.93;;;1.42;;
46014;SDS011;36844;51.898;-0.874;2023-07-16T03:22:52;6.78;;;1.35;;
46014;SDS011;36844;51.898;-0.874;2023-07-16T03:25:17;3.03;;;1.67;;
46014;SDS011;36844;51.898;-0.874;2023-07-16T03:27:43;5.80;;;1.95;;
46014;SDS011;36844;51.898;-0.874;2023-07-16T03:30:08;6.13;;;1.70;;
46014;SDS011;36844;51.898;-0.874;2023-07-16T03:32:34;4.13;;;1.38;;
46014;SDS011;36844;51.898;-0.874;2023-07-16T03:34:59;6.53;;;1.83;;
46014;SDS011;36844;51.898;-0.874;2023-07-16T03:37:24;5.00;;;1.60;;
46014;SDS011;36844;51.898;-0.874;2023-07-16T03:39:50;5.97;;;1.35;;
46014;SDS011;36844;51.898;-0.874;2023-07-16T03:42:16;3.90;;;1.35;;
46014;SDS011;36844;51.898;-0.874;2023-07-16T03:44:41;7.35;;;1.65;;
46014;SDS011;36844;51.898;-0.874;2023-07-16T03:47:07;5.05;;;1.40;;
46014;SDS011;36844;51.898;-0.874;2023-07-16T03:49:32;4.68;;;1.83;;
46014;SDS011;36844;51.898;-0.874;2023-07-16T03:51:57;3.65;;;1.58;;
46014;SDS011;36844;51.898;-0.874;2023-07-16T03:54:22;6.63;;;2.13;;
46014;SDS011;36844;51.898;-0.874;2023-07-16T03:56:48;6.95;;;1.45;;
46014;SDS011;36844;51.898;-0.874;2023-07-16T03:59:13;4.35;;;1.20;;
46014;SDS011;36844;51.898;-0.874;2023-07-16T04:01:38;5.70;;;1.67;;
46014;SDS011;36844;51.898;-0.874;2023-07-16T04:04:04;3.92;;;1.15;;
46014;SDS011;36844;51.898;-0.874;2023-07-16T04:06:29;4.47;;;1.48;;
46014;SDS011;36844;51.898;-0.874;2023-07-16T04:08:54;4.47;;;1.90;;
46014;SDS011;36844;51.898;-0.874;2023-07-16T04:11:19;5.47;;;1.45;;
46014;SDS011;36844;51.898;-0.874;2023-07-16T04:13:45;4.95;;;1.30;;
46014;SDS011;36844;51.898;-0.874;2023-07-16T04:16:10;5.65;;;1.63;;
46014;SDS011;36844;51.898;-0.874;2023-07-16T04:18:35;5.93;;;1.80;;
46014;SDS011;36844;51.898;-0.874;2023-07-16T04:21:01;7.88;;;2.15;;
46014;SDS011;36844;51.898;-0.874;2023-07-16T04:23:26;5.07;;;1.80;;
46014;SDS011;36844;51.898;-0.874;2023-07-16T04:25:52;5.75;;;1.50;;
46014;SDS011;36844;51.898;-0.874;2023-07-16T04:28:18;5.78;;;1.65;;
46014;SDS011;36844;51.898;-0.874;2023-07-16T04:30:44;2.92;;;1.30;;
46014;SDS011;36844;51.898;-0.874;2023-07-16T04:33:09;3.47;;;1.48;;
46014;SDS011;36844;51.898;-0.874;2023-07-16T04:35:35;3.25;;;1.50;;
46014;SDS011;36844;51.898;-0.874;2023-07-16T04:38:00;9.02;;;1.58;;
46014;SDS011;36844;51.898;-0.874;2023-07-16T04:40:25;5.35;;;1.40;;
46014;SDS011;36844;51.898;-0.874;2023-07-16T04:42:50;4.05;;;1.42;;
46014;SDS011;36844;51.898;-0.874;2023-07-16T04:45:16;3.53;;;1.38;;
46014;SDS011;36844;51.898;-0.874;2023-07-16T04:47:41;6.13;;;1.63;;
46014;SDS011;36844;51.898;-0.874;2023-07-16T04:50:07;2.85;;;1.50;;
46014;SDS011;36844;51.898;-0.874;2023-07-16T04:52:32;6.65;;;1.30;;
46014;SDS011;36844;51.898;-0.874;2023-07-16T04:54:58;5.53;;;1.73;;
46014;SDS011;36844;51.898;-0.874;2023-07-16T04:57:23;5.45;;;1.80;;
46014;SDS011;36844;51.898;-0.874;2023-07-16T04:59:48;2.65;;;1.20;;
46014;SDS011;36844;51.898;-0.874;2023-07-16T05:02:14;3.42;;;1.10;;
46014;SDS011;36844;51.898;-0.874;2023-07-16T05:04:41;5.65;;;1.30;;
46014;SDS011;36844;51.898;-0.874;2023-07-16T05:07:09;3.85;;;1.42;;
46014;SDS011;36844;51.898;-0.874;2023-07-16T05:09:34;5.35;;;1.70;;
46014;SDS011;36844;51.898;-0.874;2023-07-16T05:11:59;4.32;;;1.60;;
46014;SDS011;36844;51.898;-0.874;2023-07-16T05:14:25;4.00;;;1.35;;
46014;SDS011;36844;51.898;-0.874;2023-07-16T05:16:51;6.63;;;1.80;;
46014;SDS011;36844;51.898;-0.874;2023-07-16T05:19:17;3.40;;;1.50;;
46014;SDS011;36844;51.898;-0.874;2023-07-16T05:21:42;4.05;;;1.10;;
46014;SDS011;36844;51.898;-0.874;2023-07-16T05:24:07;4.90;;;1.38;;
46014;SDS011;36844;51.898;-0.874;2023-07-16T05:26:33;5.55;;;1.92;;
46014;SDS011;36844;51.898;-0.874;2023-07-16T05:28:58;3.97;;;1.20;;
46014;SDS011;36844;51.898;-0.874;2023-07-16T05:31:23;5.95;;;2.08;;
46014;SDS011;36844;51.898;-0.874;2023-07-16T05:33:49;3.30;;;1.27;;
46014;SDS011;36844;51.898;-0.874;2023-07-16T05:36:14;3.63;;;1.55;;
46014;SDS011;36844;51.898;-0.874;2023-07-16T05:38:39;2.03;;;1.10;;
46014;SDS011;36844;51.898;-0.874;2023-07-16T05:41:05;5.10;;;1.50;;
46014;SDS011;36844;51.898;-0.874;2023-07-16T05:43:31;6.80;;;1.55;;
46014;SDS011;36844;51.898;-0.874;2023-07-16T05:45:57;3.05;;;1.45;;
46014;SDS011;36844;51.898;-0.874;2023-07-16T05:48:23;6.28;;;1.42;;
46014;SDS011;36844;51.898;-0.874;2023-07-16T05:50:49;6.43;;;1.60;;
46014;SDS011;36844;51.898;-0.874;2023-07-16T05:53:14;4.45;;;1.48;;
46014;SDS011;36844;51.898;-0.874;2023-07-16T05:55:40;6.45;;;1.90;;
46014;SDS011;36844;51.898;-0.874;2023-07-16T05:58:05;6.45;;;2.00;;
46014;SDS011;36844;51.898;-0.874;2023-07-16T06:00:30;4.97;;;1.23;;
46014;SDS011;36844;51.898;-0.874;2023-07-16T06:02:55;4.15;;;1.30;;
46014;SDS011;36844;51.898;-0.874;2023-07-16T06:05:21;3.40;;;1.35;;
46014;SDS011;36844;51.898;-0.874;2023-07-16T06:07:46;2.67;;;0.90;;
46014;SDS011;36844;51.898;-0.874;2023-07-16T06:10:12;6.43;;;1.88;;
46014;SDS011;36844;51.898;-0.874;2023-07-16T06:12:37;5.55;;;1.60;;
46014;SDS011;36844;51.898;-0.874;2023-07-16T06:15:03;3.80;;;1.48;;
46014;SDS011;36844;51.898;-0.874;2023-07-16T06:17:28;11.55;;;1.85;;
46014;SDS011;36844;51.898;-0.874;2023-07-16T06:19:53;3.05;;;1.35;;
46014;SDS011;36844;51.898;-0.874;2023-07-16T06:22:19;4.85;;;1.38;;
46014;SDS011;36844;51.898;-0.874;2023-07-16T06:24:44;4.55;;;1.20;;
46014;SDS011;36844;51.898;-0.874;2023-07-16T06:27:09;5.28;;;1.65;;
46014;SDS011;36844;51.898;-0.874;2023-07-16T06:29:35;3.13;;;1.30;;
46014;SDS011;36844;51.898;-0.874;2023-07-16T06:32:00;2.88;;;1.48;;
46014;SDS011;36844;51.898;-0.874;2023-07-16T06:34:25;4.05;;;1.30;;
46014;SDS011;36844;51.898;-0.874;2023-07-16T06:36:51;2.97;;;1.27;;
46014;SDS011;36844;51.898;-0.874;2023-07-16T06:39:16;3.17;;;1.27;;
46014;SDS011;36844;51.898;-0.874;2023-07-16T06:41:42;8.43;;;1.63;;
46014;SDS011;36844;51.898;-0.874;2023-07-16T06:44:07;4.55;;;1.50;;
46014;SDS011;36844;51.898;-0.874;2023-07-16T06:46:32;5.25;;;1.02;;
46014;SDS011;36844;51.898;-0.874;2023-07-16T06:48:57;7.38;;;1.38;;
46014;SDS011;36844;51.898;-0.874;2023-07-16T06:51:23;4.07;;;1.33;;
46014;SDS011;36844;51.898;-0.874;2023-07-16T06:53:48;3.85;;;1.27;;
46014;SDS011;36844;51.898;-0.874;2023-07-16T06:56:14;4.75;;;1.25;;
46014;SDS011;36844;51.898;-0.874;2023-07-16T06:58:39;3.40;;;1.33;;
46014;SDS011;36844;51.898;-0.874;2023-07-16T07:01:05;2.80;;;1.05;;
46014;SDS011;36844;51.898;-0.874;2023-07-16T07:03:30;4.25;;;1.45;;
46014;SDS011;36844;51.898;-0.874;2023-07-16T07:05:58;3.15;;;1.27;;
46014;SDS011;36844;51.898;-0.874;2023-07-16T07:08:23;4.53;;;1.20;;
46014;SDS011;36844;51.898;-0.874;2023-07-16T07:10:49;2.25;;;0.93;;
46014;SDS011;36844;51.898;-0.874;2023-07-16T07:13:14;4.10;;;1.05;;
46014;SDS011;36844;51.898;-0.874;2023-07-16T07:15:41;4.57;;;1.60;;
46014;SDS011;36844;51.898;-0.874;2023-07-16T07:18:07;4.97;;;1.60;;
46014;SDS011;36844;51.898;-0.874;2023-07-16T07:20:32;3.50;;;1.55;;
46014;SDS011;36844;51.898;-0.874;2023-07-16T07:22:57;3.42;;;1.38;;
46014;SDS011;36844;51.898;-0.874;2023-07-16T07:25:27;3.90;;;1.25;;
46014;SDS011;36844;51.898;-0.874;2023-07-16T07:27:52;5.18;;;1.77;;
46014;SDS011;36844;51.898;-0.874;2023-07-16T07:30:17;2.72;;;1.10;;
46014;SDS011;36844;51.898;-0.874;2023-07-16T07:32:43;4.38;;;1.48;;
46014;SDS011;36844;51.898;-0.874;2023-07-16T07:35:08;3.53;;;1.10;;
46014;SDS011;36844;51.898;-0.874;2023-07-16T07:37:33;2.33;;;1.02;;
46014;SDS011;36844;51.898;-0.874;2023-07-16T07:39:59;3.45;;;1.70;;
46014;SDS011;36844;51.898;-0.874;2023-07-16T07:42:24;6.25;;;1.50;;
46014;SDS011;36844;51.898;-0.874;2023-07-16T07:44:51;4.60;;;1.58;;
46014;SDS011;36844;51.898;-0.874;2023-07-16T07:47:17;3.28;;;1.45;;
46014;SDS011;36844;51.898;-0.874;2023-07-16T07:49:42;2.75;;;1.15;;
46014;SDS011;36844;51.898;-0.874;2023-07-16T07:52:07;3.92;;;1.00;;
46014;SDS011;36844;51.898;-0.874;2023-07-16T07:54:33;4.70;;;1.60;;
46014;SDS011;36844;51.898;-0.874;2023-07-16T07:57:00;3.85;;;1.30;;
46014;SDS011;36844;51.898;-0.874;2023-07-16T07:59:28;3.20;;;0.95;;
46014;SDS011;36844;51.898;-0.874;2023-07-16T08:01:54;2.63;;;0.80;;
46014;SDS011;36844;51.898;-0.874;2023-07-16T08:04:20;3.20;;;1.02;;
46014;SDS011;36844;51.898;-0.874;2023-07-16T08:06:45;3.40;;;1.05;;
46014;SDS011;36844;51.898;-0.874;2023-07-16T08:09:10;2.38;;;1.20;;
46014;SDS011;36844;51.898;-0.874;2023-07-16T08:11:36;3.85;;;1.17;;
46014;SDS011;36844;51.898;-0.874;2023-07-16T08:14:01;4.95;;;1.20;;
46014;SDS011;36844;51.898;-0.874;2023-07-16T08:16:27;6.88;;;1.40;;
46014;SDS011;36844;51.898;-0.874;2023-07-16T08:18:52;3.25;;;1.48;;
46014;SDS011;36844;51.898;-0.874;2023-07-16T08:21:17;3.60;;;1.70;;
46014;SDS011;36844;51.898;-0.874;2023-07-16T08:23:44;5.43;;;1.40;;
46014;SDS011;36844;51.898;-0.874;2023-07-16T08:26:11;4.20;;;1.38;;
46014;SDS011;36844;51.898;-0.874;2023-07-16T08:28:37;7.60;;;2.03;;
46014;SDS011;36844;51.898;-0.874;2023-07-16T08:31:03;4.97;;;1.63;;
46014;SDS011;36844;51.898;-0.874;2023-07-16T08:33:28;6.22;;;1.85;;
46014;SDS011;36844;51.898;-0.874;2023-07-16T08:35:53;4.10;;;1.30;;
46014;SDS011;36844;51.898;-0.874;2023-07-16T08:38:19;3.20;;;1.17;;
46014;SDS011;36844;51.898;-0.874;2023-07-16T08:40:44;4.68;;;1.42;;
46014;SDS011;36844;51.898;-0.874;2023-07-16T08:43:12;4.05;;;1.10;;
46014;SDS011;36844;51.898;-0.874;2023-07-16T08:45:40;3.97;;;1.20;;
46014;SDS011;36844;51.898;-0.874;2023-07-16T08:48:07;4.10;;;1.13;;
46014;SDS011;36844;51.898;-0.874;2023-07-16T08:50:35;4.28;;;1.10;;
46014;SDS011;36844;51.898;-0.874;2023-07-16T08:53:01;4.50;;;1.52;;
46014;SDS011;36844;51.898;-0.874;2023-07-16T08:55:29;4.68;;;1.80;;
46014;SDS011;36844;51.898;-0.874;2023-07-16T08:57:55;6.07;;;1.63;;
46014;SDS011;36844;51.898;-0.874;2023-07-16T09:00:21;8.15;;;2.10;;
46014;SDS011;36844;51.898;-0.874;2023-07-16T09:02:47;5.43;;;1.80;;
46014;SDS011;36844;51.898;-0.874;2023-07-16T09:05:13;5.00;;;1.98;;
46014;SDS011;36844;51.898;-0.874;2023-07-16T09:07:40;8.43;;;1.88;;
46014;SDS011;36844;51.898;-0.874;2023-07-16T09:10:05;4.90;;;1.88;;
46014;SDS011;36844;51.898;-0.874;2023-07-16T09:12:31;6.97;;;1.95;;
46014;SDS011;36844;51.898;-0.874;2023-07-16T09:14:56;5.07;;;2.00;;
46014;SDS011;36844;51.898;-0.874;2023-07-16T09:17:22;3.25;;;1.33;;
46014;SDS011;36844;51.898;-0.874;2023-07-16T09:19:50;19.38;;;1.67;;
46014;SDS011;36844;51.898;-0.874;2023-07-16T09:22:19;4.97;;;1.70;;
46014;SDS011;36844;51.898;-0.874;2023-07-16T09:24:45;4.35;;;1.45;;
46014;SDS011;36844;51.898;-0.874;2023-07-16T09:27:12;11.50;;;1.88;;
46014;SDS011;36844;51.898;-0.874;2023-07-16T09:29:37;4.22;;;1.30;;
46014;SDS011;36844;51.898;-0.874;2023-07-16T09:32:03;7.85;;;1.63;;
46014;SDS011;36844;51.898;-0.874;2023-07-16T09:34:30;6.88;;;1.52;;
46014;SDS011;36844;51.898;-0.874;2023-07-16T09:37:00;6.05;;;1.50;;
46014;SDS011;36844;51.898;-0.874;2023-07-16T09:39:26;4.50;;;1.27;;
46014;SDS011;36844;51.898;-0.874;2023-07-16T09:41:52;5.43;;;1.20;;
46014;SDS011;36844;51.898;-0.874;2023-07-16T09:44:18;7.10;;;1.65;;
46014;SDS011;36844;51.898;-0.874;2023-07-16T09:46:44;3.67;;;1.48;;
46014;SDS011;36844;51.898;-0.874;2023-07-16T09:49:10;5.72;;;1.00;;
46014;SDS011;36844;51.898;-0.874;2023-07-16T09:51:36;5.63;;;1.40;;
46014;SDS011;36844;51.898;-0.874;2023-07-16T09:54:03;5.80;;;1.77;;
46014;SDS011;36844;51.898;-0.874;2023-07-16T13:49:38;1.90;;;0.50;;
46014;SDS011;36844;51.898;-0.874;2023-07-16T13:52:03;2.63;;;0.75;;
46014;SDS011;36844;51.898;-0.874;2023-07-16T13:54:29;2.20;;;1.08;;
46014;SDS011;36844;51.898;-0.874;2023-07-16T13:56:54;1.00;;;0.40;;
46014;SDS011;36844;51.898;-0.874;2023-07-16T13:59:19;1.25;;;0.60;;
46014;SDS011;36844;51.898;-0.874;2023-07-16T14:01:45;1.33;;;0.50;;
46014;SDS011;36844;51.898;-0.874;2023-07-16T14:04:12;1.02;;;0.40;;
46014;SDS011;36844;51.898;-0.874;2023-07-16T14:06:37;1.00;;;0.60;;
46014;SDS011;36844;51.898;-0.874;2023-07-16T14:09:02;2.25;;;0.80;;
46014;SDS011;36844;51.898;-0.874;2023-07-16T14:11:29;3.67;;;0.82;;
46014;SDS011;36844;51.898;-0.874;2023-07-16T14:13:55;1.75;;;0.70;;
46014;SDS011;36844;51.898;-0.874;2023-07-16T14:16:20;1.50;;;0.60;;
46014;SDS011;36844;51.898;-0.874;2023-07-16T14:18:49;1.45;;;0.50;;
46014;SDS011;36844;51.898;-0.874;2023-07-16T14:21:16;2.28;;;1.13;;
46014;SDS011;36844;51.898;-0.874;2023-07-16T14:23:42;0.85;;;0.50;;
46014;SDS011;36844;51.898;-0.874;2023-07-16T14:26:07;2.83;;;0.52;;
46014;SDS011;36844;51.898;-0.874;2023-07-16T14:28:33;5.05;;;0.93;;
46014;SDS011;36844;51.898;-0.874;2023-07-16T14:30:59;4.50;;;1.25;;
46014;SDS011;36844;51.898;-0.874;2023-07-16T14:33:24;3.55;;;0.70;;
46014;SDS011;36844;51.898;-0.874;2023-07-16T14:35:49;5.05;;;0.70;;
46014;SDS011;36844;51.898;-0.874;2023-07-16T14:38:15;3.22;;;1.08;;
46014;SDS011;36844;51.898;-0.874;2023-07-16T14:40:40;1.90;;;0.80;;
46014;SDS011;36844;51.898;-0.874;2023-07-16T14:43:07;2.10;;;0.88;;
46014;SDS011;36844;51.898;-0.874;2023-07-16T14:45:33;3.70;;;1.10;;
46014;SDS011;36844;51.898;-0.874;2023-07-16T14:47:59;2.40;;;0.80;;
46014;SDS011;36844;51.898;-0.874;2023-07-16T14:50:25;3.08;;;0.60;;
46014;SDS011;36844;51.898;-0.874;2023-07-16T14:52:50;1.55;;;0.70;;
46014;SDS011;36844;51.898;-0.874;2023-07-16T14:55:15;1.77;;;0.70;;
46014;SDS011;36844;51.898;-0.874;2023-07-16T14:57:41;0.52;;;0.30;;
46014;SDS011;36844;51.898;-0.874;2023-07-16T15:00:06;2.22;;;0.70;;
46014;SDS011;36844;51.898;-0.874;2023-07-16T15:02:33;3.10;;;0.60;;
46014;SDS011;36844;51.898;-0.874;2023-07-16T15:04:59;3.55;;;0.98;;
46014;SDS011;36844;51.898;-0.874;2023-07-16T15:07:24;4.50;;;0.77;;
46014;SDS011;36844;51.898;-0.874;2023-07-16T15:09:50;1.90;;;0.63;;
46014;SDS011;36844;51.898;-0.874;2023-07-16T15:12:15;2.95;;;0.85;;
46014;SDS011;36844;51.898;-0.874;2023-07-16T15:14:40;1.92;;;0.65;;
46014;SDS011;36844;51.898;-0.874;2023-07-16T15:17:06;2.47;;;0.63;;
46014;SDS011;36844;51.898;-0.874;2023-07-16T15:19:32;3.15;;;0.77;;
46014;SDS011;36844;51.898;-0.874;2023-07-16T15:21:58;1.92;;;0.70;;
46014;SDS011;36844;51.898;-0.874;2023-07-16T15:24:23;1.33;;;0.60;;
46014;SDS011;36844;51.898;-0.874;2023-07-16T15:26:49;1.80;;;0.70;;
46014;SDS011;36844;51.898;-0.874;2023-07-16T15:29:14;1.92;;;0.70;;
46014;SDS011;36844;51.898;-0.874;2023-07-16T15:31:41;1.83;;;0.50;;
46014;SDS011;36844;51.898;-0.874;2023-07-16T15:34:06;3.70;;;0.82;;
46014;SDS011;36844;51.898;-0.874;2023-07-16T15:36:31;1.55;;;0.70;;
46014;SDS011;36844;51.898;-0.874;2023-07-16T15:38:57;1.73;;;0.50;;
46014;SDS011;36844;51.898;-0.874;2023-07-16T15:41:22;8.02;;;0.80;;
46014;SDS011;36844;51.898;-0.874;2023-07-16T15:43:52;4.68;;;1.05;;
46014;SDS011;36844;51.898;-0.874;2023-07-16T15:46:18;2.22;;;0.95;;
46014;SDS011;36844;51.898;-0.874;2023-07-16T15:48:44;2.20;;;1.10;;
46014;SDS011;36844;51.898;-0.874;2023-07-16T15:51:11;2.58;;;0.70;;
46014;SDS011;36844;51.898;-0.874;2023-07-16T15:53:37;4.53;;;0.80;;
46014;SDS011;36844;51.898;-0.874;2023-07-16T15:56:02;1.73;;;0.80;;
46014;SDS011;36844;51.898;-0.874;2023-07-16T15:58:27;2.05;;;1.02;;
46014;SDS011;36844;51.898;-0.874;2023-07-16T16:00:53;9.15;;;1.08;;
46014;SDS011;36844;51.898;-0.874;2023-07-16T16:03:18;3.40;;;0.63;;
46014;SDS011;36844;51.898;-0.874;2023-07-16T16:05:43;3.75;;;0.57;;
46014;SDS011;36844;51.898;-0.874;2023-07-16T16:08:14;2.55;;;0.98;;
46014;SDS011;36844;51.898;-0.874;2023-07-16T16:10:45;3.40;;;0.77;;
46014;SDS011;36844;51.898;-0.874;2023-07-16T16:13:16;2.28;;;0.75;;
46014;SDS011;36844;51.898;-0.874;2023-07-16T16:15:42;1.83;;;0.77;;
46014;SDS011;36844;51.898;-0.874;2023-07-16T16:18:09;2.50;;;0.60;;
46014;SDS011;36844;51.898;-0.874;2023-07-16T16:20:35;1.52;;;0.70;;
46014;SDS011;36844;51.898;-0.874;2023-07-16T16:23:00;3.17;;;0.65;;
46014;SDS011;36844;51.898;-0.874;2023-07-16T16:25:28;1.23;;;0.32;;
46014;SDS011;36844;51.898;-0.874;2023-07-16T16:27:56;0.75;;;0.40;;
46014;SDS011;36844;51.898;-0.874;2023-07-16T16:30:22;0.82;;;0.43;;
46014;SDS011;36844;51.898;-0.874;2023-07-16T16:32:48;2.05;;;0.60;;
46014;SDS011;36844;51.898;-0.874;2023-07-16T16:35:17;1.52;;;0.38;;
46014;SDS011;36844;51.898;-0.874;2023-07-16T16:37:43;1.90;;;0.85;;
46014;SDS011;36844;51.898;-0.874;2023-07-16T16:40:08;2.78;;;0.60;;
46014;SDS011;36844;51.898;-0.874;2023-07-16T16:42:34;2.03;;;0.75;;
46014;SDS011;36844;51.898;-0.874;2023-07-16T16:45:00;1.27;;;0.60;;
46014;SDS011;36844;51.898;-0.874;2023-07-16T16:47:30;3.45;;;0.63;;
46014;SDS011;36844;51.898;-0.874;2023-07-16T16:49:55;2.25;;;0.80;;
46014;SDS011;36844;51.898;-0.874;2023-07-16T16:52:21;1.52;;;0.85;;
46014;SDS011;36844;51.898;-0.874;2023-07-16T16:54:46;1.98;;;0.90;;
46014;SDS011;36844;51.898;-0.874;2023-07-16T16:57:12;3.55;;;1.00;;
46014;SDS011;36844;51.898;-0.874;2023-07-16T16:59:38;1.95;;;1.25;;
46014;SDS011;36844;51.898;-0.874;2023-07-16T17:02:03;2.17;;;1.15;;
46014;SDS011;36844;51.898;-0.874;2023-07-16T17:04:29;2.22;;;0.95;;
46014;SDS011;36844;51.898;-0.874;2023-07-16T17:06:54;4.65;;;1.40;;
46014;SDS011;36844;51.898;-0.874;2023-07-16T17:09:22;3.05;;;1.73;;
46014;SDS011;36844;51.898;-0.874;2023-07-16T17:11:49;1.50;;;1.10;;
46014;SDS011;36844;51.898;-0.874;2023-07-16T17:14:14;4.05;;;0.75;;
46014;SDS011;36844;51.898;-0.874;2023-07-16T17:16:40;1.67;;;1.10;;
46014;SDS011;36844;51.898;-0.874;2023-07-16T17:19:05;2.38;;;1.00;;
46014;SDS011;36844;51.898;-0.874;2023-07-16T17:21:30;9.18;;;2.08;;
46014;SDS011;36844;51.898;-0.874;2023-07-16T17:23:56;1.17;;;0.60;;
46014;SDS011;36844;51.898;-0.874;2023-07-16T17:26:21;2.75;;;0.88;;
46014;SDS011;36844;51.898;-0.874;2023-07-16T17:28:47;3.05;;;0.95;;
46014;SDS011;36844;51.898;-0.874;2023-07-16T17:31:13;3.33;;;0.77;;
46014;SDS011;36844;51.898;-0.874;2023-07-16T17:33:38;1.70;;;0.70;;
46014;SDS011;36844;51.898;-0.874;2023-07-16T17:36:04;1.02;;;0.68;;
46014;SDS011;36844;51.898;-0.874;2023-07-16T17:38:29;3.17;;;0.90;;
46014;SDS011;36844;51.898;-0.874;2023-07-16T17:40:55;2.45;;;0.80;;
46014;SDS011;36844;51.898;-0.874;2023-07-16T17:43:20;1.80;;;0.82;;
46014;SDS011;36844;51.898;-0.874;2023-07-16T17:45:45;2.20;;;0.70;;
46014;SDS011;36844;51.898;-0.874;2023-07-16T17:48:11;2.85;;;0.55;;
46014;SDS011;36844;51.898;-0.874;2023-07-16T17:50:36;4.75;;;0.80;;
46014;SDS011;36844;51.898;-0.874;2023-07-16T17:53:02;2.97;;;0.95;;
46014;SDS011;36844;51.898;-0.874;2023-07-16T17:55:28;2.83;;;0.93;;
46014;SDS011;36844;51.898;-0.874;2023-07-16T17:57:53;4.32;;;0.63;;
46014;SDS011;36844;51.898;-0.874;2023-07-16T18:00:18;5.20;;;1.38;;
46014;SDS011;36844;51.898;-0.874;2023-07-16T18:02:44;4.00;;;0.93;;
46014;SDS011;36844;51.898;-0.874;2023-07-16T18:05:09;9.60;;;1.33;;
46014;SDS011;36844;51.898;-0.874;2023-07-16T18:07:35;7.68;;;0.90;;
46014;SDS011;36844;51.898;-0.874;2023-07-16T18:10:01;1.38;;;0.88;;
46014;SDS011;36844;51.898;-0.874;2023-07-16T18:12:27;1.58;;;0.82;;
46014;SDS011;36844;51.898;-0.874;2023-07-16T18:14:53;4.13;;;0.98;;
46014;SDS011;36844;51.898;-0.874;2023-07-16T18:17:19;1.58;;;0.77;;
46014;SDS011;36844;51.898;-0.874;2023-07-16T18:19:45;0.82;;;0.35;;
46014;SDS011;36844;51.898;-0.874;2023-07-16T18:22:10;1.60;;;0.50;;
46014;SDS011;36844;51.898;-0.874;2023-07-16T18:24:35;3.72;;;0.77;;
46014;SDS011;36844;51.898;-0.874;2023-07-16T18:27:01;2.85;;;0.57;;
46014;SDS011;36844;51.898;-0.874;2023-07-16T18:29:29;1.20;;;0.77;;
46014;SDS011;36844;51.898;-0.874;2023-07-16T18:31:55;1.77;;;0.80;;
46014;SDS011;36844;51.898;-0.874;2023-07-16T18:34:21;1.48;;;0.50;;
46014;SDS011;36844;51.898;-0.874;2023-07-16T18:36:46;1.25;;;0.75;;
46014;SDS011;36844;51.898;-0.874;2023-07-16T18:39:11;0.77;;;0.57;;
46014;SDS011;36844;51.898;-0.874;2023-07-16T18:41:37;1.35;;;0.60;;
46014;SDS011;36844;51.898;-0.874;2023-07-16T18:44:03;6.22;;;0.73;;
46014;SDS011;36844;51.898;-0.874;2023-07-16T18:46:29;1.20;;;0.85;;
46014;SDS011;36844;51.898;-0.874;2023-07-16T18:48:54;3.13;;;1.17;;
46014;SDS011;36844;51.898;-0.874;2023-07-16T18:51:20;1.42;;;0.60;;
46014;SDS011;36844;51.898;-0.874;2023-07-16T18:53:45;0.60;;;0.40;;
46014;SDS011;36844;51.898;-0.874;2023-07-16T18:56:10;2.00;;;0.85;;
46014;SDS011;36844;51.898;-0.874;2023-07-16T18:58:36;4.10;;;0.60;;
46014;SDS011;36844;51.898;-0.874;2023-07-16T19:01:01;1.95;;;0.93;;
46014;SDS011;36844;51.898;-0.874;2023-07-16T19:03:27;6.55;;;0.88;;
46014;SDS011;36844;51.898;-0.874;2023-07-16T19:05:52;1.70;;;0.73;;
46014;SDS011;36844;51.898;-0.874;2023-07-16T19:08:17;1.95;;;0.75;;
46014;SDS011;36844;51.898;-0.874;2023-07-16T19:10:44;2.85;;;0.60;;
46014;SDS011;36844;51.898;-0.874;2023-07-16T19:13:09;1.10;;;0.70;;
46014;SDS011;36844;51.898;-0.874;2023-07-16T19:15:34;2.15;;;1.00;;
46014;SDS011;36844;51.898;-0.874;2023-07-16T19:18:00;1.08;;;0.73;;
46014;SDS011;36844;51.898;-0.874;2023-07-16T19:20:26;2.50;;;0.77;;
46014;SDS011;36844;51.898;-0.874;2023-07-16T19:22:51;2.03;;;0.70;;
46014;SDS011;36844;51.898;-0.874;2023-07-16T19:25:17;2.53;;;0.80;;
46014;SDS011;36844;51.898;-0.874;2023-07-16T19:27:42;1.23;;;0.70;;
46014;SDS011;36844;51.898;-0.874;2023-07-16T19:30:08;2.75;;;0.80;;
46014;SDS011;36844;51.898;-0.874;2023-07-16T19:32:33;1.02;;;0.75;;
46014;SDS011;36844;51.898;-0.874;2023-07-16T19:34:59;2.53;;;0.80;;
46014;SDS011;36844;51.898;-0.874;2023-07-16T19:37:26;1.17;;;0.60;;
46014;SDS011;36844;51.898;-0.874;2023-07-16T19:39:56;1.30;;;0.90;;
46014;SDS011;36844;51.898;-0.874;2023-07-16T19:42:21;0.63;;;0.60;;
46014;SDS011;36844;51.898;-0.874;2023-07-16T19:44:46;1.67;;;0.85;;
46014;SDS011;36844;51.898;-0.874;2023-07-16T19:47:12;1.45;;;0.93;;
46014;SDS011;36844;51.898;-0.874;2023-07-16T19:49:37;0.80;;;0.70;;
46014;SDS011;36844;51.898;-0.874;2023-07-16T19:52:03;2.15;;;0.70;;
46014;SDS011;36844;51.898;-0.874;2023-07-16T19:54:28;1.35;;;0.90;;
46014;SDS011;36844;51.898;-0.874;2023-07-16T19:56:53;0.73;;;0.60;;
46014;SDS011;36844;51.898;-0.874;2023-07-16T19:59:19;2.33;;;0.68;;
46014;SDS011;36844;51.898;-0.874;2023-07-16T20:01:45;1.98;;;0.70;;
46014;SDS011;36844;51.898;-0.874;2023-07-16T20:04:10;1.35;;;0.70;;
46014;SDS011;36844;51.898;-0.874;2023-07-16T20:06:36;2.13;;;1.08;;
46014;SDS011;36844;51.898;-0.874;2023-07-16T20:09:01;1.58;;;0.90;;
46014;SDS011;36844;51.898;-0.874;2023-07-16T20:11:28;1.98;;;0.75;;
46014;SDS011;36844;51.898;-0.874;2023-07-16T20:13:54;1.25;;;0.70;;
46014;SDS011;36844;51.898;-0.874;2023-07-16T20:16:19;0.85;;;0.63;;
46014;SDS011;36844;51.898;-0.874;2023-07-16T20:18:44;2.25;;;1.02;;
46014;SDS011;36844;51.898;-0.874;2023-07-16T20:21:10;1.70;;;0.70;;
46014;SDS011;36844;51.898;-0.874;2023-07-16T20:23:35;1.55;;;0.55;;
46014;SDS011;36844;51.898;-0.874;2023-07-16T20:26:01;4.95;;;1.13;;
46014;SDS011;36844;51.898;-0.874;2023-07-16T20:28:26;1.77;;;0.80;;
46014;SDS011;36844;51.898;-0.874;2023-07-16T20:30:51;2.20;;;0.90;;
46014;SDS011;36844;51.898;-0.874;2023-07-16T20:33:18;2.22;;;0.90;;
46014;SDS011;36844;51.898;-0.874;2023-07-16T20:35:44;1.50;;;0.95;;
46014;SDS011;36844;51.898;-0.874;2023-07-16T20:38:09;1.52;;;0.82;;
46014;SDS011;36844;51.898;-0.874;2023-07-16T20:40:34;2.22;;;0.95;;
46014;SDS011;36844;51.898;-0.874;2023-07-16T20:43:00;0.88;;;0.60;;
46014;SDS011;36844;51.898;-0.874;2023-07-16T20:45:26;1.20;;;0.80;;